Terminal Aerodrome Forecast
Issued by NWS Greer, SC

Home | Current Version | Previous Version | Text Only | Print | Product List | Glossary On
Versions: 1 2 3 4 5 6 7 8 9 10 11 12 13 14 15 16 17 18 19 20 21 22 23 24 25
000
FTUS42 KGSP 281730
TAFCLT
TAF
KCLT 281730Z 2818/2918 24009KT P6SM FEW040 SCT070 BKN250
     FM282100 25009KT P6SM VCSH SCT050 BKN250
     FM290200 26004KT P6SM SCT100 BKN200
     FM291500 28006KT P6SM SCT110=

USA.gov is the U.S. government's official web portal to all federal, state and local government web resources and services.